Time;durP1;ratioP1;P1;durP2;ratioP2;P2;SDS_P1;SDS_P2;PMS_P1;PMS_P2;Temp;Humidity;BMP_temperature;BMP_pressure;BME280_temperature;BME280_humidity;BME280_pressure;Samples;Min_cycle;Max_cycle;Signal;HPM_P1;HPM_P2
2022/04/22 00:00:37;;;;;;;8.85;7.82;;;12.20;99.90;;;;;;2087851;28;20021;-67
2022/04/22 00:01:38;;;;;;;9.73;8.05;;;12.20;99.90;;;;;;2088398;28;20021;-67
2022/04/22 00:02:39;;;;;;;8.48;7.43;;;12.20;99.90;;;;;;2087709;28;20037;-67
2022/04/22 00:03:39;;;;;;;13.85;8.07;;;12.20;99.90;;;;;;2091467;28;20024;-67
2022/04/22 00:04:40;;;;;;;9.23;7.60;;;12.20;99.90;;;;;;2084759;28;20100;-67
2022/04/22 00:05:40;;;;;;;8.27;7.47;;;12.20;99.90;;;;;;2090645;28;20516;-67
2022/04/22 00:06:41;;;;;;;10.63;8.45;;;12.20;99.90;;;;;;2087954;28;20487;-67
2022/04/22 00:07:41;;;;;;;8.68;7.78;;;12.20;99.90;;;;;;2088170;28;20562;-67
2022/04/22 00:08:42;;;;;;;10.75;7.93;;;12.20;99.90;;;;;;2087756;28;20620;-67
2022/04/22 00:09:42;;;;;;;9.52;7.80;;;12.20;99.90;;;;;;2088123;28;20035;-67
2022/04/22 00:12:02;;;;;;;8.65;7.85;;;12.20;99.90;;;;;;2085539;28;20029;-67
2022/04/22 00:13:03;;;;;;;8.63;7.80;;;12.10;99.90;;;;;;2090757;28;20507;-67
2022/04/22 00:14:05;;;;;;;9.25;7.75;;;12.10;99.90;;;;;;2088121;28;20029;-67
2022/04/22 00:15:06;;;;;;;9.00;8.05;;;12.10;99.90;;;;;;2090683;28;20043;-67
2022/04/22 00:16:07;;;;;;;8.60;7.75;;;12.10;99.90;;;;;;2086546;28;20021;-67
2022/04/22 00:17:07;;;;;;;9.50;8.18;;;12.10;99.90;;;;;;2083893;28;20036;-67
2022/04/22 00:18:08;;;;;;;9.27;8.38;;;12.10;99.90;;;;;;2084189;28;20064;-67
2022/04/22 00:19:09;;;;;;;8.40;7.60;;;12.10;99.90;;;;;;2087503;28;20021;-67
2022/04/22 00:20:11;;;;;;;9.98;8.02;;;12.10;99.90;;;;;;2088128;28;20021;-67
2022/04/22 00:21:11;;;;;;;8.85;7.95;;;12.10;99.90;;;;;;2087969;28;20044;-67
2022/04/22 00:22:12;;;;;;;8.77;7.88;;;12.10;99.90;;;;;;2087832;28;20610;-67
2022/04/22 00:23:12;;;;;;;9.43;8.45;;;12.10;99.90;;;;;;2089313;28;20396;-67
2022/04/22 00:24:15;;;;;;;10.23;8.60;;;12.10;99.90;;;;;;2087924;28;20024;-67
2022/04/22 00:25:15;;;;;;;10.20;9.15;;;12.00;99.90;;;;;;2087492;28;20034;-67
2022/04/22 00:26:17;;;;;;;10.57;8.77;;;12.00;99.90;;;;;;2087240;28;20524;-67
2022/04/22 00:27:17;;;;;;;10.25;8.63;;;12.00;99.90;;;;;;2087421;28;20033;-67
2022/04/22 00:28:18;;;;;;;9.50;8.60;;;12.00;99.90;;;;;;2087908;28;20021;-67
2022/04/22 00:29:19;;;;;;;9.85;8.88;;;12.00;99.90;;;;;;2088294;28;20052;-67
2022/04/22 00:30:19;;;;;;;10.68;9.05;;;12.00;99.90;;;;;;2087666;28;20036;-68
2022/04/22 00:31:20;;;;;;;13.15;9.13;;;12.00;99.90;;;;;;2088106;28;20029;-67
2022/04/22 00:32:20;;;;;;;9.48;8.48;;;12.00;99.90;;;;;;2086714;28;20468;-68
2022/04/22 00:33:21;;;;;;;10.82;9.32;;;11.90;99.90;;;;;;2087894;28;20029;-67
2022/04/22 00:34:21;;;;;;;9.45;8.55;;;11.90;99.90;;;;;;2087370;28;20052;-67
2022/04/22 00:35:22;;;;;;;11.90;9.93;;;11.90;99.90;;;;;;2087397;28;20100;-67
2022/04/22 00:36:22;;;;;;;10.63;9.25;;;11.90;99.90;;;;;;2087204;28;20029;-67
2022/04/22 00:37:23;;;;;;;10.02;9.02;;;11.90;99.90;;;;;;2088108;28;20052;-67
2022/04/22 00:38:23;;;;;;;10.38;9.30;;;11.90;99.90;;;;;;2087488;28;20063;-68
2022/04/22 00:39:24;;;;;;;11.25;9.55;;;12.00;99.90;;;;;;2087996;28;20044;-67
2022/04/22 00:40:25;;;;;;;11.85;10.10;;;11.90;99.90;;;;;;2087623;28;20049;-67
2022/04/22 00:41:25;;;;;;;11.88;9.30;;;11.90;99.90;;;;;;2088203;28;20019;-67
2022/04/22 00:42:28;;;;;;;11.45;9.52;;;11.90;99.90;;;;;;2087566;28;20045;-67
2022/04/22 00:43:39;;;;;;;11.10;9.57;;;11.90;99.90;;;;;;2086348;28;20025;-67
2022/04/22 00:44:40;;;;;;;10.57;9.23;;;11.90;99.90;;;;;;2086655;28;20024;-67
2022/04/22 00:45:41;;;;;;;11.23;10.02;;;11.90;99.90;;;;;;2087430;28;20031;-68
2022/04/22 00:46:42;;;;;;;11.57;10.10;;;11.90;99.90;;;;;;2087560;28;20017;-67
2022/04/22 00:47:42;;;;;;;10.10;9.10;;;11.90;99.90;;;;;;2088041;28;20017;-67
2022/04/22 00:48:43;;;;;;;12.43;10.18;;;11.90;99.90;;;;;;2087587;28;20041;-67
2022/04/22 00:49:44;;;;;;;11.05;9.93;;;11.90;99.90;;;;;;2087625;28;20021;-67
2022/04/22 00:50:45;;;;;;;11.50;10.38;;;11.90;99.90;;;;;;2088075;28;20040;-67
2022/04/22 00:51:45;;;;;;;11.00;9.95;;;11.90;99.90;;;;;;2088715;28;20491;-67
2022/04/22 00:52:46;;;;;;;12.77;10.35;;;11.90;99.90;;;;;;2089651;28;20057;-67
2022/04/22 00:53:48;;;;;;;11.40;10.30;;;11.90;99.90;;;;;;2091954;28;20740;-67
2022/04/22 00:54:49;;;;;;;13.52;10.77;;;11.90;99.90;;;;;;2088621;28;20033;-67
2022/04/22 00:55:53;;;;;;;15.23;11.05;;;11.90;99.90;;;;;;2089223;28;20126;-67
2022/04/22 00:56:54;;;;;;;11.32;10.15;;;11.90;99.90;;;;;;2088689;28;20033;-67
2022/04/22 00:57:55;;;;;;;11.05;9.90;;;11.90;99.90;;;;;;2088747;28;20033;-67
2022/04/22 00:58:57;;;;;;;11.30;10.15;;;11.90;99.90;;;;;;2089218;28;20093;-67
2022/04/22 00:59:58;;;;;;;10.93;9.93;;;11.90;99.90;;;;;;2089706;28;20092;-67
2022/04/22 01:00:59;;;;;;;10.90;9.80;;;11.90;99.90;;;;;;2089401;28;20071;-67
2022/04/22 01:01:59;;;;;;;10.60;9.50;;;11.90;99.90;;;;;;2089523;28;20025;-67
2022/04/22 01:03:00;;;;;;;13.13;10.60;;;11.90;99.90;;;;;;2090002;28;20608;-67
2022/04/22 01:10:47;;;;;;;11.80;10.60;;;11.90;99.90;;;;;;2086395;28;20033;-68
2022/04/22 01:11:47;;;;;;;13.98;10.73;;;11.80;99.90;;;;;;2089088;28;20100;-67
2022/04/22 01:12:48;;;;;;;13.55;10.93;;;11.80;99.90;;;;;;2091046;28;20041;-68
2022/04/22 01:13:49;;;;;;;12.05;10.77;;;11.90;99.90;;;;;;2090427;28;20086;-68
2022/04/22 01:14:50;;;;;;;12.98;11.02;;;11.90;99.90;;;;;;2082417;28;20036;-68
2022/04/22 01:15:51;;;;;;;12.00;10.80;;;11.90;99.90;;;;;;2087629;28;20021;-68
2022/04/22 01:16:51;;;;;;;11.05;9.82;;;11.90;99.90;;;;;;2089052;28;20083;-68
2022/04/22 01:17:52;;;;;;;12.25;10.93;;;11.90;99.90;;;;;;2089344;28;20035;-67
2022/04/22 01:18:52;;;;;;;13.63;11.20;;;11.90;99.90;;;;;;2088910;28;20427;-67
2022/04/22 01:19:54;;;;;;;14.23;10.48;;;11.90;99.90;;;;;;2091058;28;20052;-67
2022/04/22 01:21:02;;;;;;;12.30;11.00;;;11.90;99.90;;;;;;2090353;28;20033;-67
2022/04/22 01:22:03;;;;;;;12.10;10.57;;;11.90;99.90;;;;;;2091406;28;20404;-67
2022/04/22 01:23:04;;;;;;;13.48;10.68;;;11.80;99.90;;;;;;2090495;28;20025;-67
2022/04/22 01:24:05;;;;;;;12.38;10.48;;;11.90;99.90;;;;;;2090925;28;20654;-67
2022/04/22 01:25:06;;;;;;;11.40;10.27;;;11.90;99.90;;;;;;2091766;28;20108;-67
2022/04/22 01:26:07;;;;;;;12.70;10.68;;;11.80;99.90;;;;;;2091089;28;20538;-67
2022/04/22 01:27:10;;;;;;;13.80;10.85;;;11.80;99.90;;;;;;2085562;28;20020;-67
2022/04/22 01:28:10;;;;;;;14.23;11.43;;;11.80;99.90;;;;;;2089110;28;20021;-67
2022/04/22 01:29:14;;;;;;;14.07;10.98;;;11.80;99.90;;;;;;2089510;28;20029;-67
2022/04/22 01:30:14;;;;;;;13.27;11.85;;;11.80;99.90;;;;;;2089050;28;20552;-68
2022/04/22 01:31:15;;;;;;;13.50;11.15;;;11.80;99.90;;;;;;2089416;28;20029;-68
2022/04/22 01:32:16;;;;;;;12.55;11.25;;;11.80;99.90;;;;;;2087759;28;20029;-67
2022/04/22 01:33:16;;;;;;;11.88;10.77;;;11.80;99.90;;;;;;2089478;28;20020;-68
2022/04/22 01:34:17;;;;;;;13.45;12.00;;;11.80;99.90;;;;;;2088641;28;20033;-68
2022/04/22 01:35:19;;;;;;;12.85;11.27;;;11.80;99.90;;;;;;2086139;28;20028;-67
2022/04/22 01:36:20;;;;;;;14.23;11.32;;;11.80;99.90;;;;;;2088853;28;20821;-67
2022/04/22 01:37:20;;;;;;;12.80;11.65;;;11.80;99.90;;;;;;2088483;28;20025;-67
2022/04/22 01:38:21;;;;;;;12.25;11.05;;;11.80;99.90;;;;;;2088528;28;20025;-67
2022/04/22 01:39:22;;;;;;;14.07;11.20;;;11.80;99.90;;;;;;2089338;28;20029;-67
2022/04/22 01:40:22;;;;;;;13.40;11.95;;;11.80;99.90;;;;;;2088956;28;20017;-67
2022/04/22 01:41:23;;;;;;;14.07;12.05;;;11.80;99.90;;;;;;2089224;28;20017;-67
2022/04/22 01:42:23;;;;;;;16.58;12.27;;;11.80;99.90;;;;;;2088895;28;20013;-67
2022/04/22 01:43:24;;;;;;;13.65;11.52;;;11.80;99.90;;;;;;2088175;28;20057;-68
2022/04/22 01:44:25;;;;;;;13.45;12.00;;;11.80;99.90;;;;;;2087923;28;20565;-67
2022/04/22 01:45:26;;;;;;;13.93;12.10;;;11.80;99.90;;;;;;2091399;28;20385;-68
2022/04/22 01:46:27;;;;;;;14.38;12.55;;;11.80;99.90;;;;;;2087987;28;20067;-68
2022/04/22 01:47:29;;;;;;;20.20;12.38;;;11.80;99.90;;;;;;2085770;28;20032;-67
2022/04/22 01:48:30;;;;;;;15.13;12.52;;;11.80;99.90;;;;;;2088871;28;20490;-67
2022/04/22 01:49:31;;;;;;;18.08;12.60;;;11.80;99.90;;;;;;2088803;28;20041;-67
2022/04/22 01:50:32;;;;;;;14.48;12.75;;;11.80;99.90;;;;;;2088062;28;20020;-67
2022/04/22 01:51:32;;;;;;;16.10;13.20;;;11.80;99.90;;;;;;2088425;28;20540;-67
2022/04/22 01:52:35;;;;;;;14.95;13.07;;;11.80;99.90;;;;;;2085393;28;20110;-67
2022/04/22 01:53:36;;;;;;;14.25;12.75;;;11.80;99.90;;;;;;2089314;28;20025;-67
2022/04/22 01:54:36;;;;;;;14.68;13.27;;;11.80;99.90;;;;;;2088909;28;20111;-67
2022/04/22 01:55:37;;;;;;;14.38;12.20;;;11.80;99.90;;;;;;2088573;28;20446;-67
2022/04/22 01:56:38;;;;;;;13.70;11.63;;;11.80;99.90;;;;;;2088789;28;20129;-67
2022/04/22 01:57:38;;;;;;;15.27;12.55;;;11.80;99.90;;;;;;2087592;28;20086;-68
2022/04/22 01:58:39;;;;;;;14.57;12.30;;;11.80;99.90;;;;;;2087319;28;20051;-68
2022/04/22 01:59:40;;;;;;;14.98;12.63;;;11.80;99.90;;;;;;2087792;28;20629;-67
2022/04/22 02:00:41;;;;;;;16.48;12.20;;;11.70;99.90;;;;;;2086433;28;20030;-67
2022/04/22 02:01:42;;;;;;;15.38;13.32;;;11.80;99.90;;;;;;2089865;28;20036;-67
2022/04/22 02:02:42;;;;;;;16.98;12.93;;;11.80;99.90;;;;;;2088256;28;20388;-68
2022/04/22 02:03:43;;;;;;;14.48;12.25;;;11.70;99.90;;;;;;2090667;28;20078;-67
2022/04/22 02:04:44;;;;;;;16.58;12.98;;;11.70;99.90;;;;;;2088693;28;20088;-68
2022/04/22 02:05:46;;;;;;;15.05;13.18;;;11.70;99.90;;;;;;2088188;28;20029;-68
2022/04/22 02:06:47;;;;;;;14.48;12.70;;;11.70;99.90;;;;;;2088705;28;20082;-68
2022/04/22 02:07:47;;;;;;;13.77;12.38;;;11.70;99.90;;;;;;2088940;28;20079;-68
2022/04/22 02:08:48;;;;;;;15.48;13.43;;;11.70;99.90;;;;;;2088645;28;20067;-67
2022/04/22 02:09:49;;;;;;;15.63;13.43;;;11.70;99.90;;;;;;2088660;28;20428;-67
2022/04/22 02:10:49;;;;;;;15.63;12.93;;;11.70;99.90;;;;;;2088721;28;20048;-67
2022/04/22 02:11:50;;;;;;;16.73;12.80;;;11.70;99.90;;;;;;2088614;28;20464;-67
2022/04/22 02:12:51;;;;;;;15.70;13.40;;;11.70;99.90;;;;;;2088693;28;20120;-67
2022/04/22 02:13:52;;;;;;;14.05;12.45;;;11.70;99.90;;;;;;2089406;28;20053;-67
2022/04/22 02:14:52;;;;;;;15.35;12.65;;;11.70;99.90;;;;;;2089055;28;20037;-67
2022/04/22 02:15:53;;;;;;;18.88;14.23;;;11.70;99.90;;;;;;2088014;28;20482;-67
2022/04/22 02:16:53;;;;;;;15.18;13.48;;;11.70;99.90;;;;;;2088809;28;20032;-68
2022/04/22 02:17:54;;;;;;;17.45;13.32;;;11.70;99.90;;;;;;2088440;28;20096;-67
2022/04/22 02:18:54;;;;;;;15.35;12.98;;;11.70;99.90;;;;;;2088642;28;20048;-67
2022/04/22 02:19:55;;;;;;;15.55;13.93;;;11.70;99.90;;;;;;2088453;28;20408;-67
2022/04/22 02:20:56;;;;;;;14.73;13.20;;;11.70;99.90;;;;;;2088811;28;20036;-68
2022/04/22 02:21:57;;;;;;;16.45;14.32;;;11.70;99.90;;;;;;2088797;28;20033;-67
2022/04/22 02:22:57;;;;;;;15.90;13.02;;;11.60;99.90;;;;;;2088839;28;20018;-67
2022/04/22 02:23:58;;;;;;;15.40;13.68;;;11.60;99.90;;;;;;2090149;28;20025;-67
2022/04/22 02:24:59;;;;;;;14.07;12.57;;;11.70;99.90;;;;;;2088828;28;20102;-67
2022/04/22 02:26:00;;;;;;;16.95;13.45;;;11.60;99.90;;;;;;2088080;28;20025;-67
2022/04/22 02:28:32;;;;;;;14.85;13.30;;;11.60;99.90;;;;;;2088350;28;20099;-67
2022/04/22 02:29:32;;;;;;;15.70;13.35;;;11.60;99.90;;;;;;2087975;28;20073;-67
2022/04/22 02:30:33;;;;;;;17.70;14.25;;;11.60;99.90;;;;;;2088130;28;20025;-67
2022/04/22 02:31:33;;;;;;;15.13;13.52;;;11.60;99.90;;;;;;2088819;28;20128;-67
2022/04/22 02:32:34;;;;;;;17.15;14.15;;;11.60;99.90;;;;;;2088533;28;20021;-67
2022/04/22 02:33:38;;;;;;;15.85;13.48;;;11.60;99.90;;;;;;2087013;28;20025;-67
2022/04/22 02:34:39;;;;;;;15.38;13.57;;;11.60;99.90;;;;;;2088431;28;20039;-67
2022/04/22 02:35:39;;;;;;;15.93;14.20;;;11.60;99.90;;;;;;2087475;28;20031;-67
2022/04/22 02:36:42;;;;;;;15.68;13.98;;;11.50;99.90;;;;;;2088130;28;20025;-67
2022/04/22 02:37:43;;;;;;;18.92;15.13;;;11.50;99.90;;;;;;2088434;28;20017;-67
2022/04/22 02:38:43;;;;;;;16.85;14.18;;;11.50;99.90;;;;;;2088289;28;20028;-68
2022/04/22 02:39:44;;;;;;;21.98;15.50;;;11.50;99.90;;;;;;2088741;28;20039;-68
2022/04/22 02:46:01;;;;;;;16.17;14.38;;;11.50;99.90;;;;;;2088183;28;20025;-67
2022/04/22 02:47:03;;;;;;;16.83;15.13;;;11.40;99.90;;;;;;2088129;28;20021;-68
2022/04/22 02:48:04;;;;;;;19.17;14.63;;;11.50;99.90;;;;;;2088748;28;20033;-67
2022/04/22 02:49:04;;;;;;;19.10;15.43;;;11.40;99.90;;;;;;2088728;28;20484;-68
2022/04/22 02:50:06;;;;;;;19.05;14.90;;;11.50;99.90;;;;;;2088924;28;20021;-68
2022/04/22 02:51:06;;;;;;;16.35;14.50;;;11.50;99.90;;;;;;2088277;28;20519;-68
2022/04/22 02:52:07;;;;;;;21.02;15.73;;;11.50;99.90;;;;;;2088692;28;20491;-67
2022/04/22 02:53:08;;;;;;;18.85;15.55;;;11.50;99.90;;;;;;2087520;28;20090;-67
2022/04/22 02:54:08;;;;;;;19.25;15.00;;;11.50;99.90;;;;;;2091810;28;20510;-67
2022/04/22 02:55:09;;;;;;;19.42;16.08;;;11.40;99.90;;;;;;2087815;28;20079;-67
2022/04/22 02:56:10;;;;;;;18.45;15.38;;;11.40;99.90;;;;;;2088378;28;20032;-67
2022/04/22 02:57:10;;;;;;;17.80;15.07;;;11.50;99.90;;;;;;2088421;28;20036;-67
2022/04/22 02:58:11;;;;;;;17.65;15.30;;;11.40;99.90;;;;;;2088388;28;20040;-68
2022/04/22 02:59:11;;;;;;;18.08;15.40;;;11.50;99.90;;;;;;2088217;28;20033;-68
2022/04/22 03:00:13;;;;;;;17.73;15.60;;;11.40;99.90;;;;;;2088467;28;20032;-68
2022/04/22 03:01:15;;;;;;;18.05;15.50;;;11.50;99.90;;;;;;2087995;28;20028;-68
2022/04/22 03:02:15;;;;;;;18.80;15.82;;;11.40;99.90;;;;;;2088468;28;20028;-68
2022/04/22 03:03:16;;;;;;;17.88;15.30;;;11.40;99.90;;;;;;2087145;28;20017;-68
2022/04/22 03:04:16;;;;;;;19.48;15.98;;;11.40;99.90;;;;;;2088560;28;20028;-67
2022/04/22 03:05:17;;;;;;;18.05;15.15;;;11.40;99.90;;;;;;2087486;28;20013;-67
2022/04/22 03:06:17;;;;;;;20.23;16.52;;;11.40;99.90;;;;;;2088291;28;20025;-68
2022/04/22 03:07:18;;;;;;;18.48;16.48;;;11.40;99.90;;;;;;2087968;28;20049;-67
2022/04/22 03:08:18;;;;;;;17.75;15.55;;;11.40;99.90;;;;;;2088326;28;20017;-68
2022/04/22 03:09:19;;;;;;;19.58;16.55;;;11.40;99.90;;;;;;2088084;28;20033;-67
2022/04/22 03:10:20;;;;;;;19.15;15.75;;;11.40;99.90;;;;;;2088381;28;20095;-67
2022/04/22 03:11:21;;;;;;;19.60;16.25;;;11.40;99.90;;;;;;2088299;28;20096;-67
2022/04/22 03:12:22;;;;;;;20.67;16.45;;;11.30;99.90;;;;;;2088439;28;20477;-67
2022/04/22 03:13:22;;;;;;;20.20;16.50;;;11.30;99.90;;;;;;2088843;28;20416;-67
2022/04/22 03:14:23;;;;;;;20.35;16.30;;;11.30;99.90;;;;;;2088370;28;20025;-67
2022/04/22 03:15:24;;;;;;;18.80;16.83;;;11.30;99.90;;;;;;2086773;28;20127;-68
2022/04/22 03:16:26;;;;;;;20.77;17.33;;;11.30;99.90;;;;;;2088918;28;20021;-68
2022/04/22 03:17:26;;;;;;;18.58;16.60;;;11.30;99.90;;;;;;2091365;28;20447;-67
2022/04/22 03:18:27;;;;;;;18.88;15.88;;;11.30;99.90;;;;;;2089042;28;20033;-67
2022/04/22 03:19:28;;;;;;;19.60;16.25;;;11.30;99.90;;;;;;2088355;28;20017;-67
2022/04/22 03:20:28;;;;;;;18.75;16.27;;;11.30;99.90;;;;;;2088140;28;20095;-67
2022/04/22 03:21:29;;;;;;;19.95;17.58;;;11.30;99.90;;;;;;2088342;28;20021;-68
2022/04/22 03:22:30;;;;;;;20.02;16.38;;;11.30;99.90;;;;;;2087435;28;20025;-68
2022/04/22 03:23:30;;;;;;;21.13;16.45;;;11.30;99.90;;;;;;2089070;28;20033;-68
2022/04/22 03:24:31;;;;;;;19.10;16.33;;;11.30;99.90;;;;;;2088031;28;20021;-68
2022/04/22 03:25:31;;;;;;;19.15;16.33;;;11.30;99.90;;;;;;2086347;28;20052;-67
2022/04/22 03:26:32;;;;;;;20.90;16.70;;;11.30;99.90;;;;;;2088305;28;20056;-68
2022/04/22 03:27:32;;;;;;;19.90;16.58;;;11.30;99.90;;;;;;2088380;28;20473;-68
2022/04/22 03:28:33;;;;;;;19.33;16.35;;;11.30;99.90;;;;;;2088120;28;20060;-68
2022/04/22 03:29:35;;;;;;;19.77;16.25;;;11.30;99.90;;;;;;2088564;28;20473;-68
2022/04/22 03:30:37;;;;;;;18.85;16.27;;;11.30;99.90;;;;;;2088092;28;20500;-68
2022/04/22 03:31:38;;;;;;;22.70;17.45;;;11.30;99.90;;;;;;2088253;28;20025;-68
2022/04/22 03:32:38;;;;;;;19.77;16.38;;;11.30;99.90;;;;;;2088176;28;20028;-67
2022/04/22 03:33:39;;;;;;;20.40;17.70;;;11.30;99.90;;;;;;2084882;28;20021;-67
2022/04/22 03:34:39;;;;;;;19.80;17.65;;;11.30;99.90;;;;;;2088173;28;20136;-67
2022/04/22 03:35:41;;;;;;;22.77;17.77;;;11.30;99.90;;;;;;2087634;28;20021;-68
2022/04/22 03:36:41;;;;;;;21.38;18.17;;;11.20;99.90;;;;;;2087660;28;20911;-68
2022/04/22 03:37:42;;;;;;;22.58;17.65;;;11.30;99.90;;;;;;2088193;28;20400;-68
2022/04/22 03:38:43;;;;;;;22.50;17.80;;;11.20;99.90;;;;;;2087836;28;20029;-68
2022/04/22 03:39:43;;;;;;;20.40;17.67;;;11.20;99.90;;;;;;2083912;28;20021;-68
2022/04/22 03:40:48;;;;;;;20.63;17.77;;;11.20;99.90;;;;;;2087526;28;20076;-68
2022/04/22 03:41:48;;;;;;;19.92;17.40;;;11.20;99.90;;;;;;2088165;28;20025;-68
2022/04/22 03:42:49;;;;;;;19.90;17.73;;;11.20;99.90;;;;;;2089066;28;20088;-68
2022/04/22 03:43:50;;;;;;;20.23;17.73;;;11.20;99.90;;;;;;2086912;28;20013;-68
2022/04/22 03:44:50;;;;;;;21.60;17.73;;;11.10;99.90;;;;;;2088505;28;20017;-68
2022/04/22 03:45:51;;;;;;;20.52;18.00;;;11.10;99.90;;;;;;2087942;28;20427;-68
2022/04/22 03:46:52;;;;;;;22.52;17.95;;;11.10;99.90;;;;;;2091484;28;20029;-68
2022/04/22 03:47:52;;;;;;;20.92;18.73;;;11.10;99.90;;;;;;2090788;28;20032;-68
2022/04/22 03:48:55;;;;;;;20.60;18.40;;;11.10;99.90;;;;;;2088654;28;20021;-68
2022/04/22 03:49:56;;;;;;;22.42;18.63;;;11.10;99.90;;;;;;2088718;28;20043;-68
2022/04/22 03:50:57;;;;;;;24.52;18.95;;;11.10;99.90;;;;;;2087691;28;20024;-68
2022/04/22 03:51:57;;;;;;;22.30;18.23;;;11.10;99.90;;;;;;2088115;28;20028;-68
2022/04/22 03:52:58;;;;;;;23.27;18.48;;;11.10;99.90;;;;;;2088892;28;20460;-68
2022/04/22 03:53:58;;;;;;;23.08;19.52;;;11.10;99.90;;;;;;2088145;28;20033;-68
2022/04/22 03:54:59;;;;;;;22.70;19.38;;;11.10;99.90;;;;;;2088224;28;20029;-68
2022/04/22 03:58:10;;;;;;;20.67;18.42;;;11.10;99.90;;;;;;2086956;28;20064;-68
2022/04/22 03:58:24;;;;;;;21.75;18.55;;;11.10;99.90;;;;;;2085520;28;20029;-68
2022/04/22 03:58:54;;;;;;;22.15;18.83;;;11.00;99.90;;;;;;2079981;28;20041;-68
2022/04/22 03:59:55;;;;;;;22.25;19.52;;;11.00;99.90;;;;;;2087774;28;20029;-68
2022/04/22 04:00:56;;;;;;;22.40;19.48;;;11.00;99.90;;;;;;2088309;28;20021;-68
2022/04/22 04:01:57;;;;;;;24.45;19.52;;;11.00;99.90;;;;;;2087665;28;20473;-68
2022/04/22 04:02:58;;;;;;;21.98;19.60;;;11.00;99.90;;;;;;2089939;28;20370;-68
2022/04/22 04:03:59;;;;;;;23.98;19.40;;;11.00;99.90;;;;;;2089856;28;20033;-68
2022/04/22 04:05:00;;;;;;;22.67;19.83;;;11.00;99.90;;;;;;2087251;28;20112;-68
2022/04/22 04:06:00;;;;;;;24.17;20.95;;;11.00;99.90;;;;;;2086922;28;20071;-68
2022/04/22 04:07:01;;;;;;;22.58;20.35;;;11.00;99.90;;;;;;2088132;28;20033;-68
2022/04/22 04:08:01;;;;;;;23.15;20.67;;;11.00;99.90;;;;;;2087599;28;20060;-68
2022/04/22 04:16:57;;;;;;;22.73;20.40;;;10.90;99.90;;;;;;2085019;28;20021;-68
2022/04/22 04:17:57;;;;;;;24.42;20.95;;;10.90;99.90;;;;;;2088123;28;20104;-68
2022/04/22 04:23:14;;;;;;;25.60;22.77;;;11.00;99.90;;;;;;2087847;28;20029;-68
2022/04/22 04:23:14;;;;;;;25.77;21.13;;;10.90;99.90;;;;;;2088975;28;20500;-68
2022/04/22 04:24:15;;;;;;;26.85;22.27;;;10.90;99.90;;;;;;2088204;28;20455;-68
2022/04/22 04:25:16;;;;;;;24.48;21.98;;;10.90;99.90;;;;;;2087535;28;20017;-68
2022/04/22 04:26:18;;;;;;;26.02;21.73;;;11.00;99.90;;;;;;2089432;28;20455;-68
2022/04/22 04:27:18;;;;;;;26.25;22.05;;;11.00;99.90;;;;;;2089375;28;20025;-68
2022/04/22 04:28:19;;;;;;;25.23;22.52;;;11.00;99.90;;;;;;2089411;28;20047;-68
2022/04/22 04:29:20;;;;;;;26.35;23.73;;;11.00;99.90;;;;;;2089156;28;20033;-68
2022/04/22 04:30:20;;;;;;;25.77;23.08;;;11.00;99.90;;;;;;2089486;28;20029;-68
2022/04/22 04:31:21;;;;;;;27.30;24.50;;;11.00;99.90;;;;;;2089252;28;20722;-68
2022/04/22 04:32:22;;;;;;;25.27;22.58;;;11.00;99.90;;;;;;2088685;28;20083;-68
2022/04/22 04:33:22;;;;;;;26.58;22.73;;;11.10;99.90;;;;;;2086454;28;20025;-68
2022/04/22 04:34:24;;;;;;;26.33;23.40;;;11.00;99.90;;;;;;2089990;28;20025;-68
2022/04/22 04:35:24;;;;;;;27.55;24.23;;;11.10;99.90;;;;;;2088898;28;20380;-68
2022/04/22 04:36:25;;;;;;;26.45;22.75;;;11.10;99.90;;;;;;2089966;28;20048;-68
2022/04/22 04:37:25;;;;;;;29.38;25.25;;;11.10;99.90;;;;;;2089275;28;20029;-68
2022/04/22 04:38:27;;;;;;;27.38;24.55;;;11.10;99.90;;;;;;2089433;28;20036;-68
2022/04/22 04:39:28;;;;;;;27.20;24.40;;;11.10;99.90;;;;;;2083488;28;20028;-68
2022/04/22 04:40:28;;;;;;;28.58;24.10;;;11.10;99.90;;;;;;2089487;28;20035;-68
2022/04/22 04:41:29;;;;;;;26.35;23.63;;;11.10;99.90;;;;;;2090006;28;20032;-68
2022/04/22 04:42:29;;;;;;;26.23;23.52;;;11.10;99.90;;;;;;2090078;28;20048;-68
2022/04/22 04:43:31;;;;;;;28.17;25.38;;;11.10;99.90;;;;;;2086081;28;20037;-68
2022/04/22 04:44:31;;;;;;;27.35;24.50;;;11.10;99.90;;;;;;2081798;28;20575;-69
2022/04/22 04:45:33;;;;;;;26.80;24.00;;;11.10;99.90;;;;;;2085777;28;20480;-68
2022/04/22 04:46:33;;;;;;;28.90;25.55;;;11.10;99.90;;;;;;2088241;28;20049;-68
2022/04/22 04:47:41;;;;;;;28.48;25.13;;;11.10;99.90;;;;;;2088358;28;20021;-68
2022/04/22 04:48:41;;;;;;;28.33;25.42;;;11.10;99.90;;;;;;2104357;28;20043;-68
2022/04/22 04:49:42;;;;;;;28.15;25.25;;;11.10;99.90;;;;;;2103602;28;20024;-68
2022/04/22 04:50:43;;;;;;;26.90;24.00;;;11.10;99.90;;;;;;2087961;28;20035;-68
2022/04/22 04:51:44;;;;;;;28.95;26.05;;;11.10;99.90;;;;;;2086315;28;20036;-68
2022/04/22 04:52:44;;;;;;;29.00;26.00;;;11.10;99.90;;;;;;2085738;28;20043;-68
2022/04/22 04:53:45;;;;;;;30.25;26.05;;;11.10;99.90;;;;;;2086855;28;20024;-68
2022/04/22 04:54:47;;;;;;;28.75;25.88;;;11.10;99.90;;;;;;2088516;28;20098;-68
2022/04/22 04:55:48;;;;;;;29.17;26.10;;;11.20;99.90;;;;;;2087106;28;20025;-68
2022/04/22 04:56:50;;;;;;;29.35;26.27;;;11.20;99.90;;;;;;2088345;28;20051;-68
2022/04/22 04:57:51;;;;;;;29.38;26.38;;;11.20;99.90;;;;;;2088857;28;20737;-68
2022/04/22 04:58:51;;;;;;;29.90;26.83;;;11.20;99.90;;;;;;2087810;28;20028;-68
2022/04/22 04:59:52;;;;;;;30.30;25.88;;;11.20;99.90;;;;;;2087769;28;20025;-69
2022/04/22 05:00:53;;;;;;;28.77;25.67;;;11.20;99.90;;;;;;2088754;28;20033;-68
2022/04/22 05:01:53;;;;;;;29.08;26.10;;;11.20;99.90;;;;;;2087630;28;20025;-68
2022/04/22 05:02:55;;;;;;;29.05;25.85;;;11.20;99.90;;;;;;2089253;28;20017;-68
2022/04/22 05:03:55;;;;;;;30.63;27.40;;;11.20;99.90;;;;;;2088835;28;20115;-68
2022/04/22 05:04:56;;;;;;;30.42;27.33;;;11.20;99.90;;;;;;2089154;28;20033;-68
2022/04/22 05:05:56;;;;;;;30.42;26.45;;;11.20;99.90;;;;;;2087787;28;20491;-68
2022/04/22 05:06:57;;;;;;;29.30;26.08;;;11.20;99.90;;;;;;2085838;28;20408;-68
2022/04/22 05:08:00;;;;;;;28.52;25.63;;;11.30;99.90;;;;;;2087097;28;20491;-68
2022/04/22 05:09:00;;;;;;;30.40;27.13;;;11.30;99.90;;;;;;2088363;28;20025;-68
2022/04/22 05:10:01;;;;;;;28.02;25.15;;;11.30;99.90;;;;;;2086879;28;20052;-68
2022/04/22 05:11:01;;;;;;;28.40;25.58;;;11.30;99.90;;;;;;2088825;28;20891;-68
2022/04/22 05:12:02;;;;;;;28.17;25.33;;;11.30;99.90;;;;;;2087591;28;20079;-68
2022/04/22 05:13:03;;;;;;;29.15;26.05;;;11.30;99.90;;;;;;2088259;28;20033;-68
2022/04/22 05:14:04;;;;;;;28.73;25.58;;;11.30;99.90;;;;;;2089219;28;20043;-68
2022/04/22 05:15:08;;;;;;;28.95;25.85;;;11.40;99.90;;;;;;2088898;28;20056;-68
2022/04/22 05:16:08;;;;;;;31.05;26.80;;;11.40;99.90;;;;;;2087545;28;20384;-68
2022/04/22 05:17:09;;;;;;;28.38;25.27;;;11.40;99.90;;;;;;2088824;28;20067;-68
2022/04/22 05:18:10;;;;;;;29.33;26.35;;;11.40;99.90;;;;;;2089260;28;20035;-69
2022/04/22 05:19:12;;;;;;;28.70;25.27;;;11.40;99.90;;;;;;2089698;28;20082;-68
2022/04/22 05:20:15;;;;;;;29.23;26.13;;;11.40;99.90;;;;;;2089998;28;20017;-68
2022/04/22 05:21:16;;;;;;;28.40;25.33;;;11.40;99.90;;;;;;2088443;28;20044;-68
2022/04/22 05:22:16;;;;;;;30.17;26.88;;;11.50;99.90;;;;;;2089185;28;20430;-68
2022/04/22 05:23:17;;;;;;;28.92;26.08;;;11.50;99.90;;;;;;2086549;28;20047;-68
2022/04/22 05:24:17;;;;;;;27.83;24.85;;;11.50;99.90;;;;;;2088872;28;20025;-68
2022/04/22 05:25:19;;;;;;;28.40;25.33;;;11.50;99.90;;;;;;2087160;28;20528;-68
2022/04/22 05:26:20;;;;;;;28.35;24.92;;;11.50;99.90;;;;;;2088004;28;20057;-68
2022/04/22 05:27:21;;;;;;;27.52;24.67;;;11.50;99.90;;;;;;2088721;28;20024;-69
2022/04/22 05:28:21;;;;;;;27.92;24.73;;;11.60;99.90;;;;;;2086053;28;20036;-69
2022/04/22 05:33:19;;;;;;;29.27;25.73;;;11.60;99.90;;;;;;2088094;28;20025;-68
2022/04/22 05:34:19;;;;;;;27.27;24.45;;;11.60;99.90;;;;;;2088383;28;20551;-68
2022/04/22 05:35:22;;;;;;;28.92;25.60;;;11.60;99.90;;;;;;2087753;28;20428;-68
2022/04/22 05:36:22;;;;;;;27.67;24.58;;;11.60;99.90;;;;;;2085266;28;20013;-68
2022/04/22 05:37:23;;;;;;;27.17;24.30;;;11.70;99.90;;;;;;2087819;28;20038;-68
2022/04/22 05:38:24;;;;;;;27.58;24.50;;;11.70;99.90;;;;;;2088196;28;20025;-68
2022/04/22 05:39:24;;;;;;;26.27;23.77;;;11.70;99.90;;;;;;2088362;28;20721;-68
2022/04/22 05:40:28;;;;;;;26.98;24.13;;;11.70;99.90;;;;;;2088422;28;20092;-68